createdAt,value
2022-12-17T00:01:40.946Z,16.60
2022-12-17T00:06:42.428Z,16.23
2022-12-17T00:11:43.893Z,16.63
2022-12-17T00:16:45.364Z,15.93
2022-12-17T00:21:46.883Z,14.95
2022-12-17T00:26:48.324Z,14.25
2022-12-17T00:31:49.876Z,16.38
2022-12-17T00:36:51.460Z,16.50
2022-12-17T00:41:53.555Z,15.35
2022-12-17T00:46:55.186Z,14.95
2022-12-17T00:51:57.161Z,15.32
2022-12-17T00:56:59.021Z,15.57
2022-12-17T01:02:00.589Z,15.10
2022-12-17T01:07:02.179Z,17.65
2022-12-17T01:12:05.304Z,16.60
2022-12-17T01:17:07.030Z,14.20
2022-12-17T01:22:09.109Z,17.10
2022-12-17T01:27:11.733Z,15.27
2022-12-17T01:32:13.260Z,15.40
2022-12-17T01:37:14.829Z,15.55
2022-12-17T01:42:16.268Z,16.27
2022-12-17T01:47:20.926Z,15.98
2022-12-17T01:52:23.022Z,15.65
2022-12-17T01:57:25.775Z,17.50
2022-12-17T02:02:27.350Z,15.85
2022-12-17T02:07:40.259Z,17.08
2022-12-17T02:12:51.003Z,15.60
2022-12-17T02:17:58.047Z,16.17
2022-12-17T02:23:29.481Z,17.10
2022-12-17T02:28:34.074Z,14.55
2022-12-17T02:33:37.871Z,16.45
2022-12-17T02:38:40.586Z,15.30
2022-12-17T02:43:42.458Z,16.95
2022-12-17T02:48:43.957Z,15.45
2022-12-17T02:53:51.272Z,15.35
2022-12-17T02:58:52.765Z,15.85
2022-12-17T03:03:54.454Z,14.40
2022-12-17T03:08:56.840Z,14.38
2022-12-17T03:13:58.959Z,15.77
2022-12-17T03:19:01.006Z,15.18
2022-12-17T03:24:02.446Z,13.50
2022-12-17T03:29:03.981Z,17.10
2022-12-17T03:34:05.444Z,14.32
2022-12-17T03:39:07.076Z,14.48
2022-12-17T03:44:08.525Z,14.40
2022-12-17T03:49:10.357Z,13.40
2022-12-17T03:54:11.912Z,15.27
2022-12-17T03:59:13.781Z,14.10
2022-12-17T04:04:15.265Z,12.10
2022-12-17T04:09:16.769Z,12.57
2022-12-17T04:14:18.327Z,13.35
2022-12-17T04:19:19.815Z,13.15
2022-12-17T04:24:21.324Z,12.85
2022-12-17T04:29:22.835Z,12.48
2022-12-17T04:34:24.321Z,12.60
2022-12-17T04:39:25.738Z,13.82
2022-12-17T04:44:27.168Z,12.85
2022-12-17T04:49:28.613Z,14.35
2022-12-17T04:54:30.126Z,14.45
2022-12-17T04:59:31.656Z,13.55
2022-12-17T05:04:34.605Z,14.68
2022-12-17T05:09:36.060Z,12.52
2022-12-17T05:14:37.472Z,13.32
2022-12-17T05:19:39.038Z,13.45
2022-12-17T05:24:40.476Z,14.45
2022-12-17T05:29:42.028Z,14.45
2022-12-17T05:34:43.509Z,12.05
2022-12-17T05:39:44.964Z,13.27
2022-12-17T05:44:46.443Z,13.75
2022-12-17T05:49:47.924Z,14.45
2022-12-17T05:54:49.385Z,14.57
2022-12-17T05:59:50.812Z,14.38
2022-12-17T06:04:52.241Z,14.32
2022-12-17T06:09:53.663Z,14.35
2022-12-17T06:14:55.076Z,14.45
2022-12-17T06:19:56.543Z,14.77
2022-12-17T06:24:58.048Z,15.32
2022-12-17T06:29:59.511Z,15.20
2022-12-17T06:35:00.933Z,15.65
2022-12-17T06:40:02.461Z,14.38
2022-12-17T06:45:04.246Z,15.43
2022-12-17T06:50:06.351Z,15.25
2022-12-17T06:55:08.250Z,14.63
2022-12-17T07:00:10.384Z,13.93
2022-12-17T07:05:11.928Z,14.27
2022-12-17T07:10:14.524Z,14.18
2022-12-17T07:15:16.220Z,15.80
2022-12-17T07:20:17.645Z,15.90
2022-12-17T07:25:19.114Z,15.77
2022-12-17T07:30:20.630Z,14.60
2022-12-17T07:35:22.204Z,15.95
2022-12-17T07:40:23.686Z,16.50
2022-12-17T07:45:25.377Z,13.45
2022-12-17T07:50:26.981Z,16.63
2022-12-17T07:55:28.567Z,15.63
2022-12-17T08:00:30.147Z,14.13
2022-12-17T08:05:31.547Z,13.13
2022-12-17T08:10:33.026Z,14.43
2022-12-17T08:15:34.432Z,14.52
2022-12-17T08:20:35.852Z,13.73
2022-12-17T08:25:37.322Z,13.18
2022-12-17T08:30:38.895Z,14.32
2022-12-17T08:35:40.426Z,14.23
2022-12-17T08:40:41.847Z,13.38
2022-12-17T08:45:50.426Z,12.57
2022-12-17T08:50:52.328Z,14.15
2022-12-17T08:55:53.764Z,13.10
2022-12-17T09:00:59.261Z,14.07
2022-12-17T09:06:00.791Z,13.25
2022-12-17T09:11:02.282Z,13.30
2022-12-17T09:16:03.946Z,15.32
2022-12-17T09:21:05.650Z,15.27
2022-12-17T09:26:07.311Z,12.82
2022-12-17T09:31:08.963Z,13.18
2022-12-17T09:36:10.562Z,14.18
2022-12-17T09:41:31.890Z,13.70
2022-12-17T09:46:45.134Z,14.43
2022-12-17T09:51:46.749Z,13.20
2022-12-17T09:56:49.099Z,13.32
2022-12-17T10:01:50.679Z,14.57
2022-12-17T10:06:52.233Z,15.70
2022-12-17T10:11:54.525Z,14.38
2022-12-17T10:16:56.014Z,15.30
2022-12-17T10:22:07.441Z,13.68
2022-12-17T10:27:10.524Z,15.23
2022-12-17T10:32:14.927Z,14.25
2022-12-17T10:37:20.630Z,14.38
2022-12-17T10:42:28.082Z,13.27
2022-12-17T10:47:33.777Z,15.15
2022-12-17T10:52:36.773Z,16.60
2022-12-17T10:57:38.702Z,15.32
2022-12-17T11:02:48.248Z,15.25
2022-12-17T11:07:50.036Z,15.38
2022-12-17T11:12:56.386Z,16.13
2022-12-17T11:17:58.767Z,15.32
2022-12-17T11:23:01.029Z,15.27
2022-12-17T11:28:15.370Z,15.63
2022-12-17T11:33:21.711Z,14.40
2022-12-17T11:38:44.160Z,15.35
2022-12-17T11:43:59.964Z,14.98
2022-12-17T11:49:14.186Z,15.82
2022-12-17T11:54:27.017Z,14.90
2022-12-17T11:59:31.565Z,14.75
2022-12-17T12:05:05.117Z,15.60
2022-12-17T12:10:19.440Z,14.20
2022-12-17T12:15:53.989Z,15.18
2022-12-17T12:21:25.476Z,14.77
2022-12-17T12:26:50.368Z,14.57
2022-12-17T12:32:13.459Z,15.65
2022-12-17T12:37:18.134Z,15.15
2022-12-17T12:42:25.059Z,13.88
2022-12-17T12:47:45.971Z,14.23
2022-12-17T12:52:47.724Z,12.48
2022-12-17T12:58:23.015Z,14.70
2022-12-17T13:03:31.173Z,12.73
2022-12-17T13:13:42.419Z,12.55
2022-12-17T13:18:43.907Z,13.38
2022-12-17T13:23:45.372Z,14.60
2022-12-17T13:29:28.910Z,14.30
2022-12-17T13:34:42.446Z,14.05
2022-12-17T13:40:15.870Z,13.32
2022-12-17T13:45:21.940Z,13.02
2022-12-17T13:50:35.613Z,13.00
2022-12-17T13:55:38.107Z,14.07
2022-12-17T14:00:39.560Z,13.40
2022-12-17T14:05:44.287Z,15.43
2022-12-17T14:10:54.403Z,13.93
2022-12-17T14:15:55.855Z,13.52
2022-12-17T14:20:57.402Z,13.77
2022-12-17T14:25:59.424Z,13.98
2022-12-17T14:31:28.736Z,13.15
2022-12-17T14:36:32.023Z,14.60
2022-12-17T14:41:37.817Z,15.07
2022-12-17T14:46:39.310Z,14.40
2022-12-17T14:51:42.483Z,15.05
2022-12-17T14:56:46.458Z,15.68
2022-12-17T15:01:54.152Z,14.82
2022-12-17T15:06:57.348Z,14.68
2022-12-17T15:11:58.821Z,16.85
2022-12-17T15:17:00.330Z,15.68
2022-12-17T15:22:03.934Z,16.80
2022-12-17T15:27:05.439Z,14.25
2022-12-17T15:32:06.977Z,16.55
2022-12-17T15:37:08.464Z,13.60
2022-12-17T15:42:10.141Z,15.68
2022-12-17T15:47:11.635Z,14.50
2022-12-17T15:52:13.148Z,14.90
2022-12-17T15:57:18.570Z,15.02
2022-12-17T16:02:20.502Z,14.93
2022-12-17T16:07:22.099Z,17.15
2022-12-17T16:12:23.531Z,15.60
2022-12-17T16:17:25.015Z,15.32
2022-12-17T16:22:27.974Z,14.55
2022-12-17T16:27:29.462Z,16.30
2022-12-17T16:32:36.091Z,17.90
2022-12-17T16:37:38.144Z,24.55
2022-12-17T16:42:39.603Z,17.42
2022-12-17T16:47:41.051Z,17.05
2022-12-17T16:52:42.460Z,15.65
2022-12-17T16:57:43.953Z,16.35
2022-12-17T17:02:49.879Z,17.83
2022-12-17T17:07:54.366Z,18.27
2022-12-17T17:12:55.927Z,18.20
2022-12-17T17:18:02.027Z,19.90
2022-12-17T17:23:04.372Z,20.55
2022-12-17T17:28:05.851Z,19.23
2022-12-17T17:33:07.347Z,19.42
2022-12-17T17:38:08.813Z,17.13
2022-12-17T17:43:10.249Z,17.83
2022-12-17T17:48:11.709Z,18.48
2022-12-17T17:53:13.130Z,20.00
2022-12-17T17:58:14.581Z,18.98
2022-12-17T18:03:16.133Z,20.98
2022-12-17T18:08:17.702Z,19.95
2022-12-17T18:13:19.161Z,23.52
2022-12-17T18:18:20.588Z,21.88
2022-12-17T18:23:22.024Z,20.73
2022-12-17T18:28:23.483Z,21.95
2022-12-17T18:33:24.916Z,20.30
2022-12-17T18:38:26.403Z,19.23
2022-12-17T18:43:27.819Z,21.10
2022-12-17T18:48:29.411Z,21.25
2022-12-17T18:53:30.848Z,21.08
2022-12-17T18:58:32.312Z,22.40
2022-12-17T19:03:34.068Z,24.30
2022-12-17T19:08:36.077Z,23.90
2022-12-17T19:13:38.191Z,24.15
2022-12-17T19:18:40.646Z,24.33
2022-12-17T19:23:42.288Z,25.73
2022-12-17T19:28:46.358Z,24.23
2022-12-17T19:33:47.976Z,24.02
2022-12-17T19:38:54.351Z,24.50
2022-12-17T19:43:58.098Z,20.80
2022-12-17T19:49:00.005Z,24.35
2022-12-17T19:54:08.115Z,24.25
2022-12-17T19:59:12.336Z,22.90
2022-12-17T20:04:15.523Z,23.23
2022-12-17T20:09:17.017Z,22.23
2022-12-17T20:14:22.365Z,22.02
2022-12-17T20:19:26.830Z,22.48
2022-12-17T20:24:31.509Z,21.00
2022-12-17T20:29:33.163Z,23.55
2022-12-17T20:34:34.700Z,22.98
2022-12-17T20:39:36.228Z,24.15
2022-12-17T20:44:37.709Z,21.90
2022-12-17T20:49:39.198Z,21.85
2022-12-17T20:54:40.612Z,23.33
2022-12-17T20:59:42.061Z,24.52
2022-12-17T21:04:43.594Z,22.55
2022-12-17T21:09:45.098Z,24.65
2022-12-17T21:14:46.526Z,26.00
2022-12-17T21:19:48.000Z,26.23
2022-12-17T21:24:49.530Z,27.63
2022-12-17T21:29:51.019Z,26.83
2022-12-17T21:34:52.536Z,24.85
2022-12-17T21:39:59.618Z,26.65
2022-12-17T21:45:01.459Z,25.13
2022-12-17T21:50:03.406Z,21.95
2022-12-17T21:55:05.361Z,33.22
2022-12-17T22:00:07.964Z,32.75
2022-12-17T22:05:12.614Z,28.77
2022-12-17T22:10:24.312Z,25.42
2022-12-17T22:15:48.182Z,25.98
2022-12-17T22:20:58.583Z,28.33
2022-12-17T22:26:00.088Z,25.17
2022-12-17T22:31:06.102Z,25.75
2022-12-17T22:38:49.490Z,24.95
2022-12-17T22:44:49.155Z,25.42
2022-12-17T22:46:52.031Z,26.23
2022-12-17T22:51:53.547Z,25.23
2022-12-17T22:57:20.941Z,24.92
2022-12-17T23:02:16.642Z,22.95
2022-12-17T23:07:18.244Z,29.08
2022-12-17T23:12:19.723Z,26.23
2022-12-17T23:17:21.215Z,24.05
2022-12-17T23:22:22.662Z,24.80
2022-12-17T23:27:24.185Z,23.75
2022-12-17T23:32:26.246Z,24.30
2022-12-17T23:37:27.665Z,23.02
2022-12-17T23:42:29.118Z,25.92
2022-12-17T23:47:31.391Z,24.63
2022-12-17T23:52:32.883Z,23.85
2022-12-17T23:57:34.300Z,24.80
